sensor_id;sensor_type;location;lat;lon;timestamp;temperature;humidity
17442;DHT22;8838;50.144;8.176;2023-03-31T00:02:12;10.00;99.90
17442;DHT22;8838;50.144;8.176;2023-03-31T00:04:39;9.90;99.90
17442;DHT22;8838;50.144;8.176;2023-03-31T00:07:12;10.00;99.90
17442;DHT22;8838;50.144;8.176;2023-03-31T00:09:39;10.00;99.90
17442;DHT22;8838;50.144;8.176;2023-03-31T00:12:06;9.90;99.90
17442;DHT22;8838;50.144;8.176;2023-03-31T00:14:34;9.90;99.90
17442;DHT22;8838;50.144;8.176;2023-03-31T00:17:01;9.80;99.90
17442;DHT22;8838;50.144;8.176;2023-03-31T00:19:29;9.70;99.90
17442;DHT22;8838;50.144;8.176;2023-03-31T00:21:58;9.60;99.90
17442;DHT22;8838;50.144;8.176;2023-03-31T00:24:26;9.60;99.90
17442;DHT22;8838;50.144;8.176;2023-03-31T00:26:57;9.60;99.90
17442;DHT22;8838;50.144;8.176;2023-03-31T00:29:24;9.60;99.90
17442;DHT22;8838;50.144;8.176;2023-03-31T00:31:52;9.50;99.90
17442;DHT22;8838;50.144;8.176;2023-03-31T00:34:19;9.60;99.90
17442;DHT22;8838;50.144;8.176;2023-03-31T00:36:46;9.50;99.90
17442;DHT22;8838;50.144;8.176;2023-03-31T00:39:15;9.50;99.90
17442;DHT22;8838;50.144;8.176;2023-03-31T00:41:43;9.60;99.90
17442;DHT22;8838;50.144;8.176;2023-03-31T00:44:12;9.50;99.90
17442;DHT22;8838;50.144;8.176;2023-03-31T00:46:48;9.50;99.90
17442;DHT22;8838;50.144;8.176;2023-03-31T00:49:22;9.50;99.90
17442;DHT22;8838;50.144;8.176;2023-03-31T00:51:53;9.40;99.90
17442;DHT22;8838;50.144;8.176;2023-03-31T00:54:22;9.40;99.90
17442;DHT22;8838;50.144;8.176;2023-03-31T00:56:52;9.40;99.90
17442;DHT22;8838;50.144;8.176;2023-03-31T00:59:26;9.40;99.90
17442;DHT22;8838;50.144;8.176;2023-03-31T01:01:54;9.30;99.90
17442;DHT22;8838;50.144;8.176;2023-03-31T01:04:25;9.40;99.90
17442;DHT22;8838;50.144;8.176;2023-03-31T01:06:57;9.40;99.90
17442;DHT22;8838;50.144;8.176;2023-03-31T01:09:28;9.30;99.90
17442;DHT22;8838;50.144;8.176;2023-03-31T01:11:59;9.40;99.90
17442;DHT22;8838;50.144;8.176;2023-03-31T01:14:27;9.40;99.90
17442;DHT22;8838;50.144;8.176;2023-03-31T01:16:54;9.40;99.90
17442;DHT22;8838;50.144;8.176;2023-03-31T01:19:31;9.40;99.90
17442;DHT22;8838;50.144;8.176;2023-03-31T01:22:24;9.40;99.90
17442;DHT22;8838;50.144;8.176;2023-03-31T01:25:22;9.40;99.90
17442;DHT22;8838;50.144;8.176;2023-03-31T01:28:06;9.50;99.90
17442;DHT22;8838;50.144;8.176;2023-03-31T01:34:22;9.50;99.90
17442;DHT22;8838;50.144;8.176;2023-03-31T01:40:14;9.60;99.90
17442;DHT22;8838;50.144;8.176;2023-03-31T01:42:48;9.50;99.90
17442;DHT22;8838;50.144;8.176;2023-03-31T01:45:25;9.50;99.90
17442;DHT22;8838;50.144;8.176;2023-03-31T01:47:56;9.40;99.90
17442;DHT22;8838;50.144;8.176;2023-03-31T01:50:27;9.50;99.90
17442;DHT22;8838;50.144;8.176;2023-03-31T01:53:00;9.50;99.90
17442;DHT22;8838;50.144;8.176;2023-03-31T01:55:33;9.50;99.90
17442;DHT22;8838;50.144;8.176;2023-03-31T01:58:06;9.50;99.90
17442;DHT22;8838;50.144;8.176;2023-03-31T02:00:38;9.50;99.90
17442;DHT22;8838;50.144;8.176;2023-03-31T02:03:10;9.60;99.90
17442;DHT22;8838;50.144;8.176;2023-03-31T02:05:45;9.60;99.90
17442;DHT22;8838;50.144;8.176;2023-03-31T02:08:15;9.60;99.90
17442;DHT22;8838;50.144;8.176;2023-03-31T02:10:44;9.70;99.90
17442;DHT22;8838;50.144;8.176;2023-03-31T02:13:13;9.70;99.90
17442;DHT22;8838;50.144;8.176;2023-03-31T02:15:43;9.70;99.90
17442;DHT22;8838;50.144;8.176;2023-03-31T02:18:14;9.70;99.90
17442;DHT22;8838;50.144;8.176;2023-03-31T02:20:46;9.70;99.90
17442;DHT22;8838;50.144;8.176;2023-03-31T02:23:15;9.70;99.90
17442;DHT22;8838;50.144;8.176;2023-03-31T02:25:48;9.70;99.90
17442;DHT22;8838;50.144;8.176;2023-03-31T02:28:20;9.70;99.90
17442;DHT22;8838;50.144;8.176;2023-03-31T02:30:52;9.70;99.90
17442;DHT22;8838;50.144;8.176;2023-03-31T02:33:23;9.80;99.90
17442;DHT22;8838;50.144;8.176;2023-03-31T02:35:50;9.80;99.90
17442;DHT22;8838;50.144;8.176;2023-03-31T02:38:17;9.80;99.90
17442;DHT22;8838;50.144;8.176;2023-03-31T02:40:46;9.80;99.90
17442;DHT22;8838;50.144;8.176;2023-03-31T02:43:13;9.70;99.90
17442;DHT22;8838;50.144;8.176;2023-03-31T02:45:42;9.60;99.90
17442;DHT22;8838;50.144;8.176;2023-03-31T02:48:14;9.60;99.90
17442;DHT22;8838;50.144;8.176;2023-03-31T02:53:39;9.40;99.90
17442;DHT22;8838;50.144;8.176;2023-03-31T02:56:29;9.40;99.90
17442;DHT22;8838;50.144;8.176;2023-03-31T02:59:14;9.40;99.90
17442;DHT22;8838;50.144;8.176;2023-03-31T03:02:08;9.40;99.90
17442;DHT22;8838;50.144;8.176;2023-03-31T03:04:48;9.30;99.90
17442;DHT22;8838;50.144;8.176;2023-03-31T03:07:23;9.30;99.90
17442;DHT22;8838;50.144;8.176;2023-03-31T03:09:59;9.20;99.90
17442;DHT22;8838;50.144;8.176;2023-03-31T03:12:33;9.20;99.90
17442;DHT22;8838;50.144;8.176;2023-03-31T03:15:06;9.30;99.90
17442;DHT22;8838;50.144;8.176;2023-03-31T03:17:35;9.20;99.90
17442;DHT22;8838;50.144;8.176;2023-03-31T03:20:04;9.10;99.90
17442;DHT22;8838;50.144;8.176;2023-03-31T03:22:34;9.10;99.90
17442;DHT22;8838;50.144;8.176;2023-03-31T03:25:02;9.10;99.90
17442;DHT22;8838;50.144;8.176;2023-03-31T03:27:30;9.10;99.90
17442;DHT22;8838;50.144;8.176;2023-03-31T03:29:57;9.10;99.90
17442;DHT22;8838;50.144;8.176;2023-03-31T03:32:24;9.10;99.90
17442;DHT22;8838;50.144;8.176;2023-03-31T03:34:51;9.00;99.90
17442;DHT22;8838;50.144;8.176;2023-03-31T03:37:18;9.10;99.90
17442;DHT22;8838;50.144;8.176;2023-03-31T03:39:45;9.10;99.90
17442;DHT22;8838;50.144;8.176;2023-03-31T03:42:12;9.10;99.90
17442;DHT22;8838;50.144;8.176;2023-03-31T03:44:40;9.00;99.90
17442;DHT22;8838;50.144;8.176;2023-03-31T03:47:07;9.00;99.90
17442;DHT22;8838;50.144;8.176;2023-03-31T03:49:34;9.00;99.90
17442;DHT22;8838;50.144;8.176;2023-03-31T03:52:01;9.00;99.90
17442;DHT22;8838;50.144;8.176;2023-03-31T03:54:28;9.00;99.90
17442;DHT22;8838;50.144;8.176;2023-03-31T03:56:55;9.00;99.90
17442;DHT22;8838;50.144;8.176;2023-03-31T03:59:23;9.00;99.90
17442;DHT22;8838;50.144;8.176;2023-03-31T04:01:51;8.90;99.90
17442;DHT22;8838;50.144;8.176;2023-03-31T04:04:18;8.90;99.90
17442;DHT22;8838;50.144;8.176;2023-03-31T04:06:45;8.90;99.90
17442;DHT22;8838;50.144;8.176;2023-03-31T04:09:12;8.80;99.90
17442;DHT22;8838;50.144;8.176;2023-03-31T04:11:38;8.90;99.90
17442;DHT22;8838;50.144;8.176;2023-03-31T04:14:05;8.80;99.90
17442;DHT22;8838;50.144;8.176;2023-03-31T04:16:32;8.80;99.90
17442;DHT22;8838;50.144;8.176;2023-03-31T04:19:01;8.80;99.90
17442;DHT22;8838;50.144;8.176;2023-03-31T04:21:29;8.90;99.90
17442;DHT22;8838;50.144;8.176;2023-03-31T04:23:59;8.90;99.90
17442;DHT22;8838;50.144;8.176;2023-03-31T04:26:30;8.90;99.90
17442;DHT22;8838;50.144;8.176;2023-03-31T04:29:04;8.90;99.90
17442;DHT22;8838;50.144;8.176;2023-03-31T04:31:32;8.80;99.90
17442;DHT22;8838;50.144;8.176;2023-03-31T04:34:00;8.80;99.90
17442;DHT22;8838;50.144;8.176;2023-03-31T04:36:31;8.80;99.90
17442;DHT22;8838;50.144;8.176;2023-03-31T04:38:59;8.90;99.90
17442;DHT22;8838;50.144;8.176;2023-03-31T04:41:26;8.90;99.90
17442;DHT22;8838;50.144;8.176;2023-03-31T04:43:53;8.80;99.90
17442;DHT22;8838;50.144;8.176;2023-03-31T04:46:20;8.70;99.90
17442;DHT22;8838;50.144;8.176;2023-03-31T04:48:47;8.80;99.90
17442;DHT22;8838;50.144;8.176;2023-03-31T04:51:16;8.70;99.90
17442;DHT22;8838;50.144;8.176;2023-03-31T04:53:44;8.70;99.90
17442;DHT22;8838;50.144;8.176;2023-03-31T04:56:11;8.70;99.90
17442;DHT22;8838;50.144;8.176;2023-03-31T04:58:38;8.70;99.90
17442;DHT22;8838;50.144;8.176;2023-03-31T05:01:06;8.70;99.90
17442;DHT22;8838;50.144;8.176;2023-03-31T05:03:33;8.80;99.90
17442;DHT22;8838;50.144;8.176;2023-03-31T05:06:00;8.80;99.90
17442;DHT22;8838;50.144;8.176;2023-03-31T05:08:28;8.80;99.90
17442;DHT22;8838;50.144;8.176;2023-03-31T05:10:55;8.80;99.90
17442;DHT22;8838;50.144;8.176;2023-03-31T05:13:22;8.80;99.90
17442;DHT22;8838;50.144;8.176;2023-03-31T05:15:49;8.80;99.90
17442;DHT22;8838;50.144;8.176;2023-03-31T05:18:16;8.90;99.90
17442;DHT22;8838;50.144;8.176;2023-03-31T05:20:43;8.80;99.90
17442;DHT22;8838;50.144;8.176;2023-03-31T05:23:11;8.80;99.90
17442;DHT22;8838;50.144;8.176;2023-03-31T05:25:39;8.80;99.90
17442;DHT22;8838;50.144;8.176;2023-03-31T05:28:07;8.70;99.90
17442;DHT22;8838;50.144;8.176;2023-03-31T05:30:34;8.70;99.90
17442;DHT22;8838;50.144;8.176;2023-03-31T05:33:01;8.70;99.90
17442;DHT22;8838;50.144;8.176;2023-03-31T05:35:28;8.70;99.90
17442;DHT22;8838;50.144;8.176;2023-03-31T05:37:55;8.70;99.90
17442;DHT22;8838;50.144;8.176;2023-03-31T05:40:22;8.70;99.90
17442;DHT22;8838;50.144;8.176;2023-03-31T05:42:50;8.70;99.90
17442;DHT22;8838;50.144;8.176;2023-03-31T05:45:17;8.80;99.90
17442;DHT22;8838;50.144;8.176;2023-03-31T05:47:44;8.70;99.90
17442;DHT22;8838;50.144;8.176;2023-03-31T05:50:11;8.70;99.90
17442;DHT22;8838;50.144;8.176;2023-03-31T05:52:38;8.60;99.90
17442;DHT22;8838;50.144;8.176;2023-03-31T05:55:05;8.60;99.90
17442;DHT22;8838;50.144;8.176;2023-03-31T05:57:32;8.60;99.90
17442;DHT22;8838;50.144;8.176;2023-03-31T06:00:01;8.60;99.90
17442;DHT22;8838;50.144;8.176;2023-03-31T06:02:27;8.50;99.90
17442;DHT22;8838;50.144;8.176;2023-03-31T06:04:55;8.60;99.90
17442;DHT22;8838;50.144;8.176;2023-03-31T06:07:33;8.60;99.90
17442;DHT22;8838;50.144;8.176;2023-03-31T06:10:03;8.60;99.90
17442;DHT22;8838;50.144;8.176;2023-03-31T06:12:32;8.60;99.90
17442;DHT22;8838;50.144;8.176;2023-03-31T06:15:02;8.60;99.90
17442;DHT22;8838;50.144;8.176;2023-03-31T06:17:29;8.70;99.90
17442;DHT22;8838;50.144;8.176;2023-03-31T06:19:56;8.60;99.90
17442;DHT22;8838;50.144;8.176;2023-03-31T06:22:23;8.70;99.90
17442;DHT22;8838;50.144;8.176;2023-03-31T06:24:50;8.60;99.90
17442;DHT22;8838;50.144;8.176;2023-03-31T06:27:17;8.70;99.90
17442;DHT22;8838;50.144;8.176;2023-03-31T06:29:43;8.60;99.90
17442;DHT22;8838;50.144;8.176;2023-03-31T06:32:12;8.60;99.90
17442;DHT22;8838;50.144;8.176;2023-03-31T06:34:39;8.60;99.90
17442;DHT22;8838;50.144;8.176;2023-03-31T06:37:06;8.60;99.90
17442;DHT22;8838;50.144;8.176;2023-03-31T06:39:33;8.60;99.90
17442;DHT22;8838;50.144;8.176;2023-03-31T06:41:59;8.60;99.90
17442;DHT22;8838;50.144;8.176;2023-03-31T06:44:26;8.70;99.90
17442;DHT22;8838;50.144;8.176;2023-03-31T06:46:53;8.60;99.90
17442;DHT22;8838;50.144;8.176;2023-03-31T06:49:22;8.60;99.90
17442;DHT22;8838;50.144;8.176;2023-03-31T06:51:48;8.60;99.90
17442;DHT22;8838;50.144;8.176;2023-03-31T06:54:15;8.60;99.90
17442;DHT22;8838;50.144;8.176;2023-03-31T06:56:42;8.60;99.90
17442;DHT22;8838;50.144;8.176;2023-03-31T06:59:09;8.60;99.90
17442;DHT22;8838;50.144;8.176;2023-03-31T07:01:36;8.60;99.90
17442;DHT22;8838;50.144;8.176;2023-03-31T07:04:04;8.60;99.90
17442;DHT22;8838;50.144;8.176;2023-03-31T07:06:32;8.60;99.90
17442;DHT22;8838;50.144;8.176;2023-03-31T07:09:00;8.60;99.90
17442;DHT22;8838;50.144;8.176;2023-03-31T07:11:26;8.70;99.90
17442;DHT22;8838;50.144;8.176;2023-03-31T07:13:53;8.70;99.90
17442;DHT22;8838;50.144;8.176;2023-03-31T07:16:20;8.60;99.90
17442;DHT22;8838;50.144;8.176;2023-03-31T07:18:48;8.60;99.90
17442;DHT22;8838;50.144;8.176;2023-03-31T07:21:15;8.60;99.90
17442;DHT22;8838;50.144;8.176;2023-03-31T07:23:43;8.50;99.90
17442;DHT22;8838;50.144;8.176;2023-03-31T07:26:10;8.50;99.90
17442;DHT22;8838;50.144;8.176;2023-03-31T07:28:37;8.60;99.90
17442;DHT22;8838;50.144;8.176;2023-03-31T07:31:10;8.70;99.90
17442;DHT22;8838;50.144;8.176;2023-03-31T07:33:37;8.90;99.90
17442;DHT22;8838;50.144;8.176;2023-03-31T07:36:04;9.10;99.90
17442;DHT22;8838;50.144;8.176;2023-03-31T07:38:31;9.20;99.90
17442;DHT22;8838;50.144;8.176;2023-03-31T07:41:00;9.30;99.90
17442;DHT22;8838;50.144;8.176;2023-03-31T07:43:26;9.30;99.90
17442;DHT22;8838;50.144;8.176;2023-03-31T07:45:53;9.40;99.90
17442;DHT22;8838;50.144;8.176;2023-03-31T07:48:20;9.50;99.90
17442;DHT22;8838;50.144;8.176;2023-03-31T07:50:47;9.60;99.90
17442;DHT22;8838;50.144;8.176;2023-03-31T07:53:16;9.70;99.90
17442;DHT22;8838;50.144;8.176;2023-03-31T07:55:42;9.80;99.90
17442;DHT22;8838;50.144;8.176;2023-03-31T07:58:11;9.80;99.90
17442;DHT22;8838;50.144;8.176;2023-03-31T08:00:38;10.30;99.90
17442;DHT22;8838;50.144;8.176;2023-03-31T08:03:05;11.30;99.90
17442;DHT22;8838;50.144;8.176;2023-03-31T08:05:32;12.40;99.90
17442;DHT22;8838;50.144;8.176;2023-03-31T08:07:59;13.00;99.90
17442;DHT22;8838;50.144;8.176;2023-03-31T08:10:27;13.30;99.90
17442;DHT22;8838;50.144;8.176;2023-03-31T08:12:54;13.30;99.90
17442;DHT22;8838;50.144;8.176;2023-03-31T08:15:22;13.10;99.90
17442;DHT22;8838;50.144;8.176;2023-03-31T08:17:49;12.90;99.90
17442;DHT22;8838;50.144;8.176;2023-03-31T08:20:16;12.70;99.90
17442;DHT22;8838;50.144;8.176;2023-03-31T08:22:43;12.50;99.90
17442;DHT22;8838;50.144;8.176;2023-03-31T08:25:10;12.20;99.90
17442;DHT22;8838;50.144;8.176;2023-03-31T08:27:38;12.10;99.90
17442;DHT22;8838;50.144;8.176;2023-03-31T08:30:07;11.80;99.90
17442;DHT22;8838;50.144;8.176;2023-03-31T08:32:36;11.30;99.90
17442;DHT22;8838;50.144;8.176;2023-03-31T08:35:04;11.10;99.90
17442;DHT22;8838;50.144;8.176;2023-03-31T08:37:33;11.10;99.90
17442;DHT22;8838;50.144;8.176;2023-03-31T08:40:00;10.90;99.90
17442;DHT22;8838;50.144;8.176;2023-03-31T08:42:35;10.90;99.90
17442;DHT22;8838;50.144;8.176;2023-03-31T08:45:05;10.70;99.90
17442;DHT22;8838;50.144;8.176;2023-03-31T08:47:34;10.60;99.90
17442;DHT22;8838;50.144;8.176;2023-03-31T08:50:07;10.50;99.90
17442;DHT22;8838;50.144;8.176;2023-03-31T08:52:40;10.50;99.90
17442;DHT22;8838;50.144;8.176;2023-03-31T08:55:12;10.50;99.90
17442;DHT22;8838;50.144;8.176;2023-03-31T08:57:50;10.50;99.90
17442;DHT22;8838;50.144;8.176;2023-03-31T09:00:20;10.50;99.90
17442;DHT22;8838;50.144;8.176;2023-03-31T09:02:50;10.80;99.90
17442;DHT22;8838;50.144;8.176;2023-03-31T09:05:30;11.40;99.90
17442;DHT22;8838;50.144;8.176;2023-03-31T09:08:05;12.20;99.90
17442;DHT22;8838;50.144;8.176;2023-03-31T09:10:50;13.50;99.90
17442;DHT22;8838;50.144;8.176;2023-03-31T09:13:35;14.70;99.90
17442;DHT22;8838;50.144;8.176;2023-03-31T09:16:15;15.10;99.90
17442;DHT22;8838;50.144;8.176;2023-03-31T09:18:43;15.90;99.90
17442;DHT22;8838;50.144;8.176;2023-03-31T09:21:16;16.40;99.90
17442;DHT22;8838;50.144;8.176;2023-03-31T09:23:47;16.50;99.90
17442;DHT22;8838;50.144;8.176;2023-03-31T09:26:23;16.30;99.90
17442;DHT22;8838;50.144;8.176;2023-03-31T09:28:54;15.90;99.90
17442;DHT22;8838;50.144;8.176;2023-03-31T09:31:30;15.80;99.90
17442;DHT22;8838;50.144;8.176;2023-03-31T09:34:00;15.10;99.90
17442;DHT22;8838;50.144;8.176;2023-03-31T09:36:30;14.40;99.90
17442;DHT22;8838;50.144;8.176;2023-03-31T09:38:59;13.90;99.90
17442;DHT22;8838;50.144;8.176;2023-03-31T09:41:26;13.80;99.90
17442;DHT22;8838;50.144;8.176;2023-03-31T09:43:53;13.40;99.90
17442;DHT22;8838;50.144;8.176;2023-03-31T09:46:25;12.90;99.90
17442;DHT22;8838;50.144;8.176;2023-03-31T09:48:57;12.80;99.90
17442;DHT22;8838;50.144;8.176;2023-03-31T09:51:28;12.90;99.90
17442;DHT22;8838;50.144;8.176;2023-03-31T09:54:08;12.60;99.90
17442;DHT22;8838;50.144;8.176;2023-03-31T09:56:45;12.20;99.90
17442;DHT22;8838;50.144;8.176;2023-03-31T09:59:15;11.80;99.90
17442;DHT22;8838;50.144;8.176;2023-03-31T10:01:44;11.60;99.90
17442;DHT22;8838;50.144;8.176;2023-03-31T10:04:18;11.30;99.90
17442;DHT22;8838;50.144;8.176;2023-03-31T10:06:46;11.20;99.90
17442;DHT22;8838;50.144;8.176;2023-03-31T10:09:15;11.00;99.90
17442;DHT22;8838;50.144;8.176;2023-03-31T10:11:54;10.80;99.90
17442;DHT22;8838;50.144;8.176;2023-03-31T10:14:31;10.70;99.90
17442;DHT22;8838;50.144;8.176;2023-03-31T10:17:02;10.60;99.90
17442;DHT22;8838;50.144;8.176;2023-03-31T10:19:32;10.50;99.90
17442;DHT22;8838;50.144;8.176;2023-03-31T10:22:01;10.50;99.90
17442;DHT22;8838;50.144;8.176;2023-03-31T10:24:37;10.40;99.90
17442;DHT22;8838;50.144;8.176;2023-03-31T10:27:06;10.40;99.90
17442;DHT22;8838;50.144;8.176;2023-03-31T10:29:37;10.40;99.90
17442;DHT22;8838;50.144;8.176;2023-03-31T10:32:09;10.50;99.90
17442;DHT22;8838;50.144;8.176;2023-03-31T10:34:41;10.60;99.90
17442;DHT22;8838;50.144;8.176;2023-03-31T10:37:10;10.60;99.90
17442;DHT22;8838;50.144;8.176;2023-03-31T10:39:42;10.80;99.90
17442;DHT22;8838;50.144;8.176;2023-03-31T10:42:10;11.10;99.90
17442;DHT22;8838;50.144;8.176;2023-03-31T10:44:44;11.40;99.90
17442;DHT22;8838;50.144;8.176;2023-03-31T10:47:18;11.60;99.90
17442;DHT22;8838;50.144;8.176;2023-03-31T10:49:48;12.20;99.90
17442;DHT22;8838;50.144;8.176;2023-03-31T10:52:19;13.00;99.90
17442;DHT22;8838;50.144;8.176;2023-03-31T10:54:50;13.70;99.90
17442;DHT22;8838;50.144;8.176;2023-03-31T10:57:28;13.40;99.90
17442;DHT22;8838;50.144;8.176;2023-03-31T11:00:05;13.20;99.90
17442;DHT22;8838;50.144;8.176;2023-03-31T11:02:57;13.20;99.90
17442;DHT22;8838;50.144;8.176;2023-03-31T11:05:31;13.30;99.90
17442;DHT22;8838;50.144;8.176;2023-03-31T11:11:19;13.00;99.90
17442;DHT22;8838;50.144;8.176;2023-03-31T11:13:51;12.80;99.90
17442;DHT22;8838;50.144;8.176;2023-03-31T11:16:27;12.80;99.90
17442;DHT22;8838;50.144;8.176;2023-03-31T11:19:05;12.50;99.90
17442;DHT22;8838;50.144;8.176;2023-03-31T11:21:44;12.30;99.90
17442;DHT22;8838;50.144;8.176;2023-03-31T11:24:20;12.00;99.90
17442;DHT22;8838;50.144;8.176;2023-03-31T11:26:56;12.10;99.90
17442;DHT22;8838;50.144;8.176;2023-03-31T11:29:32;12.40;99.90
17442;DHT22;8838;50.144;8.176;2023-03-31T11:32:15;12.70;99.90
17442;DHT22;8838;50.144;8.176;2023-03-31T11:35:03;13.10;99.90
17442;DHT22;8838;50.144;8.176;2023-03-31T11:37:56;13.30;99.90
17442;DHT22;8838;50.144;8.176;2023-03-31T11:40:38;13.40;99.90
17442;DHT22;8838;50.144;8.176;2023-03-31T11:43:14;13.10;99.90
17442;DHT22;8838;50.144;8.176;2023-03-31T11:45:46;12.90;99.90
17442;DHT22;8838;50.144;8.176;2023-03-31T11:48:24;12.80;99.90
17442;DHT22;8838;50.144;8.176;2023-03-31T11:50:54;13.00;99.90
17442;DHT22;8838;50.144;8.176;2023-03-31T11:53:26;13.30;99.90
17442;DHT22;8838;50.144;8.176;2023-03-31T11:55:55;13.20;99.90
17442;DHT22;8838;50.144;8.176;2023-03-31T11:58:31;13.40;99.90
17442;DHT22;8838;50.144;8.176;2023-03-31T12:01:02;13.40;99.90
17442;DHT22;8838;50.144;8.176;2023-03-31T12:03:36;13.00;99.90
17442;DHT22;8838;50.144;8.176;2023-03-31T12:06:10;13.00;99.90
17442;DHT22;8838;50.144;8.176;2023-03-31T12:08:46;12.90;99.90
17442;DHT22;8838;50.144;8.176;2023-03-31T12:11:20;12.90;99.90
17442;DHT22;8838;50.144;8.176;2023-03-31T12:13:54;12.80;99.90
17442;DHT22;8838;50.144;8.176;2023-03-31T12:16:25;12.90;99.90
17442;DHT22;8838;50.144;8.176;2023-03-31T12:18:58;13.10;99.90
17442;DHT22;8838;50.144;8.176;2023-03-31T12:21:28;13.30;99.90
17442;DHT22;8838;50.144;8.176;2023-03-31T12:23:57;13.40;99.90
17442;DHT22;8838;50.144;8.176;2023-03-31T12:26:35;13.80;99.90
17442;DHT22;8838;50.144;8.176;2023-03-31T12:29:20;14.10;99.90
17442;DHT22;8838;50.144;8.176;2023-03-31T12:31:51;14.10;99.90
17442;DHT22;8838;50.144;8.176;2023-03-31T12:34:21;14.30;99.90
17442;DHT22;8838;50.144;8.176;2023-03-31T12:37:07;14.50;99.90
17442;DHT22;8838;50.144;8.176;2023-03-31T12:39:49;14.30;99.90
17442;DHT22;8838;50.144;8.176;2023-03-31T12:42:38;14.00;99.90
17442;DHT22;8838;50.144;8.176;2023-03-31T12:45:17;13.80;99.90
17442;DHT22;8838;50.144;8.176;2023-03-31T12:48:09;13.80;99.90
17442;DHT22;8838;50.144;8.176;2023-03-31T12:50:52;13.90;99.90
17442;DHT22;8838;50.144;8.176;2023-03-31T12:53:28;13.40;99.90
17442;DHT22;8838;50.144;8.176;2023-03-31T12:55:57;13.10;99.90
17442;DHT22;8838;50.144;8.176;2023-03-31T12:58:44;12.80;99.90
17442;DHT22;8838;50.144;8.176;2023-03-31T13:01:17;12.30;99.90
17442;DHT22;8838;50.144;8.176;2023-03-31T13:03:48;12.40;99.90
17442;DHT22;8838;50.144;8.176;2023-03-31T13:06:47;12.50;99.90
17442;DHT22;8838;50.144;8.176;2023-03-31T13:09:41;12.90;99.90
17442;DHT22;8838;50.144;8.176;2023-03-31T13:12:12;13.10;99.90
17442;DHT22;8838;50.144;8.176;2023-03-31T13:14:42;13.40;99.90
17442;DHT22;8838;50.144;8.176;2023-03-31T13:17:29;13.70;99.90
17442;DHT22;8838;50.144;8.176;2023-03-31T13:20:16;13.80;99.90
17442;DHT22;8838;50.144;8.176;2023-03-31T13:22:45;13.80;99.90
17442;DHT22;8838;50.144;8.176;2023-03-31T13:25:36;13.80;99.90
17442;DHT22;8838;50.144;8.176;2023-03-31T13:28:10;13.60;99.90
17442;DHT22;8838;50.144;8.176;2023-03-31T13:30:50;13.30;99.90
17442;DHT22;8838;50.144;8.176;2023-03-31T13:33:22;13.10;99.90
17442;DHT22;8838;50.144;8.176;2023-03-31T13:35:53;13.00;99.90
17442;DHT22;8838;50.144;8.176;2023-03-31T13:38:29;12.80;99.90
17442;DHT22;8838;50.144;8.176;2023-03-31T13:41:09;12.60;99.90
17442;DHT22;8838;50.144;8.176;2023-03-31T13:44:03;12.50;99.90
17442;DHT22;8838;50.144;8.176;2023-03-31T13:46:56;12.70;99.90
17442;DHT22;8838;50.144;8.176;2023-03-31T13:49:50;13.10;99.90
17442;DHT22;8838;50.144;8.176;2023-03-31T13:52:29;13.60;99.90
17442;DHT22;8838;50.144;8.176;2023-03-31T13:55:10;13.90;99.90
17442;DHT22;8838;50.144;8.176;2023-03-31T13:58:04;14.20;99.90
17442;DHT22;8838;50.144;8.176;2023-03-31T14:00:45;14.50;99.90
17442;DHT22;8838;50.144;8.176;2023-03-31T14:03:37;14.70;99.90
17442;DHT22;8838;50.144;8.176;2023-03-31T14:06:19;14.90;99.90
17442;DHT22;8838;50.144;8.176;2023-03-31T14:08:51;14.70;99.90
17442;DHT22;8838;50.144;8.176;2023-03-31T14:11:24;14.60;99.90
17442;DHT22;8838;50.144;8.176;2023-03-31T14:13:59;14.40;99.90
17442;DHT22;8838;50.144;8.176;2023-03-31T14:16:26;14.30;99.90
17442;DHT22;8838;50.144;8.176;2023-03-31T14:18:58;14.50;99.90
17442;DHT22;8838;50.144;8.176;2023-03-31T14:21:34;14.40;99.90
17442;DHT22;8838;50.144;8.176;2023-03-31T14:24:09;14.40;99.90
17442;DHT22;8838;50.144;8.176;2023-03-31T14:26:50;14.30;99.90
17442;DHT22;8838;50.144;8.176;2023-03-31T14:29:24;14.20;99.90
17442;DHT22;8838;50.144;8.176;2023-03-31T14:32:01;14.00;99.90
17442;DHT22;8838;50.144;8.176;2023-03-31T14:34:56;14.10;99.90
17442;DHT22;8838;50.144;8.176;2023-03-31T14:37:27;14.00;99.90
17442;DHT22;8838;50.144;8.176;2023-03-31T14:39:56;13.90;99.90
17442;DHT22;8838;50.144;8.176;2023-03-31T14:42:26;13.80;99.90
17442;DHT22;8838;50.144;8.176;2023-03-31T14:44:55;13.40;99.90
17442;DHT22;8838;50.144;8.176;2023-03-31T14:47:24;13.20;99.90
17442;DHT22;8838;50.144;8.176;2023-03-31T14:49:58;13.10;99.90
17442;DHT22;8838;50.144;8.176;2023-03-31T14:52:29;13.00;99.90
17442;DHT22;8838;50.144;8.176;2023-03-31T14:54:58;13.00;99.90
17442;DHT22;8838;50.144;8.176;2023-03-31T14:57:29;12.90;99.90
17442;DHT22;8838;50.144;8.176;2023-03-31T14:59:57;12.90;99.90
17442;DHT22;8838;50.144;8.176;2023-03-31T15:02:30;12.90;99.90
17442;DHT22;8838;50.144;8.176;2023-03-31T15:04:58;12.80;99.90
17442;DHT22;8838;50.144;8.176;2023-03-31T15:07:28;12.60;99.90
17442;DHT22;8838;50.144;8.176;2023-03-31T15:09:56;12.40;99.90
17442;DHT22;8838;50.144;8.176;2023-03-31T15:12:23;12.30;99.90
17442;DHT22;8838;50.144;8.176;2023-03-31T15:14:53;12.30;99.90
17442;DHT22;8838;50.144;8.176;2023-03-31T15:17:24;12.40;99.90
17442;DHT22;8838;50.144;8.176;2023-03-31T15:19:53;12.50;99.90
17442;DHT22;8838;50.144;8.176;2023-03-31T15:22:22;12.40;99.90
17442;DHT22;8838;50.144;8.176;2023-03-31T15:24:51;12.40;99.90
17442;DHT22;8838;50.144;8.176;2023-03-31T15:27:29;12.50;99.90
17442;DHT22;8838;50.144;8.176;2023-03-31T15:30:00;12.50;99.90
17442;DHT22;8838;50.144;8.176;2023-03-31T15:32:30;12.60;99.90
17442;DHT22;8838;50.144;8.176;2023-03-31T15:34:58;12.60;99.90
17442;DHT22;8838;50.144;8.176;2023-03-31T15:37:29;12.60;99.90
17442;DHT22;8838;50.144;8.176;2023-03-31T15:40:00;12.50;99.90
17442;DHT22;8838;50.144;8.176;2023-03-31T15:42:31;12.50;99.90
17442;DHT22;8838;50.144;8.176;2023-03-31T15:48:02;12.50;99.90
17442;DHT22;8838;50.144;8.176;2023-03-31T15:50:29;12.40;99.90
17442;DHT22;8838;50.144;8.176;2023-03-31T15:52:58;12.30;99.90
17442;DHT22;8838;50.144;8.176;2023-03-31T15:55:29;12.30;99.90
17442;DHT22;8838;50.144;8.176;2023-03-31T15:57:58;12.30;99.90
17442;DHT22;8838;50.144;8.176;2023-03-31T16:00:42;12.20;99.90
17442;DHT22;8838;50.144;8.176;2023-03-31T16:03:15;12.10;99.90
17442;DHT22;8838;50.144;8.176;2023-03-31T16:05:50;12.10;99.90
17442;DHT22;8838;50.144;8.176;2023-03-31T16:08:22;11.90;99.90
17442;DHT22;8838;50.144;8.176;2023-03-31T16:10:58;11.50;99.90
17442;DHT22;8838;50.144;8.176;2023-03-31T16:13:28;11.40;99.90
17442;DHT22;8838;50.144;8.176;2023-03-31T16:15:56;11.40;99.90
17442;DHT22;8838;50.144;8.176;2023-03-31T16:18:27;11.30;99.90
17442;DHT22;8838;50.144;8.176;2023-03-31T16:20:58;11.30;99.90
17442;DHT22;8838;50.144;8.176;2023-03-31T16:23:29;11.30;99.90
17442;DHT22;8838;50.144;8.176;2023-03-31T16:25:58;11.40;99.90
17442;DHT22;8838;50.144;8.176;2023-03-31T16:28:27;11.30;99.90
17442;DHT22;8838;50.144;8.176;2023-03-31T16:30:55;11.20;99.90
17442;DHT22;8838;50.144;8.176;2023-03-31T16:33:29;11.20;99.90
17442;DHT22;8838;50.144;8.176;2023-03-31T16:35:57;11.20;99.90
17442;DHT22;8838;50.144;8.176;2023-03-31T16:38:25;11.10;99.90